sensor_id;sensor_type;location;lat;lon;timestamp;P1;durP1;ratioP1;P2;durP2;ratioP2
43042;SDS011;28667;50.758;6.096;2023-04-29T00:00:02;10.45;;;5.15;;
43042;SDS011;28667;50.758;6.096;2023-04-29T00:02:36;11.63;;;5.60;;
43042;SDS011;28667;50.758;6.096;2023-04-29T00:05:02;12.68;;;6.32;;
43042;SDS011;28667;50.758;6.096;2023-04-29T00:07:29;9.90;;;5.30;;
43042;SDS011;28667;50.758;6.096;2023-04-29T00:09:58;8.48;;;5.20;;
43042;SDS011;28667;50.758;6.096;2023-04-29T00:12:25;13.98;;;6.43;;
43042;SDS011;28667;50.758;6.096;2023-04-29T00:14:50;16.15;;;6.00;;
43042;SDS011;28667;50.758;6.096;2023-04-29T00:17:17;10.90;;;5.30;;
43042;SDS011;28667;50.758;6.096;2023-04-29T00:19:42;11.93;;;5.93;;
43042;SDS011;28667;50.758;6.096;2023-04-29T00:22:09;11.57;;;6.32;;
43042;SDS011;28667;50.758;6.096;2023-04-29T00:24:35;14.27;;;5.20;;
43042;SDS011;28667;50.758;6.096;2023-04-29T00:27:00;8.77;;;5.43;;
43042;SDS011;28667;50.758;6.096;2023-04-29T00:29:26;10.23;;;5.72;;
43042;SDS011;28667;50.758;6.096;2023-04-29T00:31:52;13.80;;;6.25;;
43042;SDS011;28667;50.758;6.096;2023-04-29T00:34:18;11.48;;;6.03;;
43042;SDS011;28667;50.758;6.096;2023-04-29T00:36:44;11.23;;;6.47;;
43042;SDS011;28667;50.758;6.096;2023-04-29T00:39:10;15.02;;;7.88;;
43042;SDS011;28667;50.758;6.096;2023-04-29T00:41:37;15.20;;;7.50;;
43042;SDS011;28667;50.758;6.096;2023-04-29T00:44:03;16.15;;;7.38;;
43042;SDS011;28667;50.758;6.096;2023-04-29T00:46:29;13.65;;;7.03;;
43042;SDS011;28667;50.758;6.096;2023-04-29T00:48:55;18.83;;;7.70;;
43042;SDS011;28667;50.758;6.096;2023-04-29T00:51:21;17.52;;;8.23;;
43042;SDS011;28667;50.758;6.096;2023-04-29T00:53:47;14.65;;;7.78;;
43042;SDS011;28667;50.758;6.096;2023-04-29T00:56:13;25.02;;;8.90;;
43042;SDS011;28667;50.758;6.096;2023-04-29T00:58:40;18.15;;;7.75;;
43042;SDS011;28667;50.758;6.096;2023-04-29T01:01:13;22.08;;;8.73;;
43042;SDS011;28667;50.758;6.096;2023-04-29T01:03:40;16.25;;;8.00;;
43042;SDS011;28667;50.758;6.096;2023-04-29T01:08:51;20.10;;;8.82;;
43042;SDS011;28667;50.758;6.096;2023-04-29T01:11:23;15.20;;;8.35;;
43042;SDS011;28667;50.758;6.096;2023-04-29T01:13:59;17.48;;;8.80;;
43042;SDS011;28667;50.758;6.096;2023-04-29T01:16:33;21.17;;;9.20;;
43042;SDS011;28667;50.758;6.096;2023-04-29T01:19:31;22.65;;;8.50;;
43042;SDS011;28667;50.758;6.096;2023-04-29T01:22:15;17.00;;;7.10;;
43042;SDS011;28667;50.758;6.096;2023-04-29T01:24:44;20.00;;;8.27;;
43042;SDS011;28667;50.758;6.096;2023-04-29T01:27:17;20.67;;;9.93;;
43042;SDS011;28667;50.758;6.096;2023-04-29T01:35:44;27.50;;;9.98;;
43042;SDS011;28667;50.758;6.096;2023-04-29T01:38:33;23.20;;;9.70;;
43042;SDS011;28667;50.758;6.096;2023-04-29T01:41:13;24.58;;;11.10;;
43042;SDS011;28667;50.758;6.096;2023-04-29T01:43:41;18.40;;;9.30;;
43042;SDS011;28667;50.758;6.096;2023-04-29T01:46:18;22.80;;;8.52;;
43042;SDS011;28667;50.758;6.096;2023-04-29T01:48:45;18.40;;;8.65;;
43042;SDS011;28667;50.758;6.096;2023-04-29T01:51:11;19.38;;;8.98;;
43042;SDS011;28667;50.758;6.096;2023-04-29T01:53:37;20.05;;;9.63;;
43042;SDS011;28667;50.758;6.096;2023-04-29T01:56:08;22.08;;;9.40;;
43042;SDS011;28667;50.758;6.096;2023-04-29T01:59:00;22.85;;;9.68;;
43042;SDS011;28667;50.758;6.096;2023-04-29T02:01:44;22.52;;;9.88;;
43042;SDS011;28667;50.758;6.096;2023-04-29T02:04:11;17.85;;;9.00;;
43042;SDS011;28667;50.758;6.096;2023-04-29T02:06:37;20.02;;;9.35;;
43042;SDS011;28667;50.758;6.096;2023-04-29T02:09:03;23.98;;;10.35;;
43042;SDS011;28667;50.758;6.096;2023-04-29T02:11:31;19.50;;;8.50;;
43042;SDS011;28667;50.758;6.096;2023-04-29T02:13:57;22.83;;;8.63;;
43042;SDS011;28667;50.758;6.096;2023-04-29T02:16:23;21.88;;;8.52;;
43042;SDS011;28667;50.758;6.096;2023-04-29T02:18:55;18.98;;;8.32;;
43042;SDS011;28667;50.758;6.096;2023-04-29T02:21:21;18.95;;;8.32;;
43042;SDS011;28667;50.758;6.096;2023-04-29T02:23:47;17.38;;;7.97;;
43042;SDS011;28667;50.758;6.096;2023-04-29T02:26:13;20.83;;;8.57;;
43042;SDS011;28667;50.758;6.096;2023-04-29T02:28:39;23.00;;;8.65;;
43042;SDS011;28667;50.758;6.096;2023-04-29T02:31:05;20.95;;;9.00;;
43042;SDS011;28667;50.758;6.096;2023-04-29T02:33:31;23.88;;;9.95;;
43042;SDS011;28667;50.758;6.096;2023-04-29T02:35:57;17.88;;;8.60;;
43042;SDS011;28667;50.758;6.096;2023-04-29T02:38:23;24.35;;;9.85;;
43042;SDS011;28667;50.758;6.096;2023-04-29T02:40:49;21.67;;;9.65;;
43042;SDS011;28667;50.758;6.096;2023-04-29T02:43:15;23.88;;;10.70;;
43042;SDS011;28667;50.758;6.096;2023-04-29T02:45:43;23.55;;;9.50;;
43042;SDS011;28667;50.758;6.096;2023-04-29T02:48:09;29.27;;;12.07;;
43042;SDS011;28667;50.758;6.096;2023-04-29T02:50:34;25.48;;;10.90;;
43042;SDS011;28667;50.758;6.096;2023-04-29T02:53:01;30.50;;;11.50;;
43042;SDS011;28667;50.758;6.096;2023-04-29T02:55:27;29.33;;;11.98;;
43042;SDS011;28667;50.758;6.096;2023-04-29T02:57:56;24.52;;;9.73;;
43042;SDS011;28667;50.758;6.096;2023-04-29T03:00:22;27.95;;;11.55;;
43042;SDS011;28667;50.758;6.096;2023-04-29T03:02:48;24.25;;;10.80;;
43042;SDS011;28667;50.758;6.096;2023-04-29T03:05:14;26.67;;;12.07;;
43042;SDS011;28667;50.758;6.096;2023-04-29T03:07:39;26.48;;;11.20;;
43042;SDS011;28667;50.758;6.096;2023-04-29T03:10:05;23.48;;;10.82;;
43042;SDS011;28667;50.758;6.096;2023-04-29T03:12:34;28.92;;;11.50;;
43042;SDS011;28667;50.758;6.096;2023-04-29T03:15:00;32.40;;;11.55;;
43042;SDS011;28667;50.758;6.096;2023-04-29T03:17:26;26.83;;;11.38;;
43042;SDS011;28667;50.758;6.096;2023-04-29T03:19:52;29.45;;;12.48;;
43042;SDS011;28667;50.758;6.096;2023-04-29T03:22:18;31.05;;;12.70;;
43042;SDS011;28667;50.758;6.096;2023-04-29T03:24:44;30.23;;;12.00;;
43042;SDS011;28667;50.758;6.096;2023-04-29T03:27:10;25.42;;;11.23;;
43042;SDS011;28667;50.758;6.096;2023-04-29T03:29:35;28.38;;;11.23;;
43042;SDS011;28667;50.758;6.096;2023-04-29T03:32:02;27.63;;;12.43;;
43042;SDS011;28667;50.758;6.096;2023-04-29T03:34:28;25.00;;;11.95;;
43042;SDS011;28667;50.758;6.096;2023-04-29T03:37:08;24.33;;;10.00;;
43042;SDS011;28667;50.758;6.096;2023-04-29T03:39:37;26.08;;;10.85;;
43042;SDS011;28667;50.758;6.096;2023-04-29T03:42:03;22.00;;;10.18;;
43042;SDS011;28667;50.758;6.096;2023-04-29T03:44:29;28.50;;;12.15;;
43042;SDS011;28667;50.758;6.096;2023-04-29T03:46:55;34.22;;;11.60;;
43042;SDS011;28667;50.758;6.096;2023-04-29T03:49:22;27.55;;;12.23;;
43042;SDS011;28667;50.758;6.096;2023-04-29T03:51:48;31.25;;;12.00;;
43042;SDS011;28667;50.758;6.096;2023-04-29T03:54:15;29.17;;;10.88;;
43042;SDS011;28667;50.758;6.096;2023-04-29T03:56:40;32.40;;;13.07;;
43042;SDS011;28667;50.758;6.096;2023-04-29T03:59:07;31.27;;;13.10;;
43042;SDS011;28667;50.758;6.096;2023-04-29T04:01:35;36.05;;;12.98;;
43042;SDS011;28667;50.758;6.096;2023-04-29T04:04:01;34.75;;;12.77;;
43042;SDS011;28667;50.758;6.096;2023-04-29T04:06:28;29.58;;;11.73;;
43042;SDS011;28667;50.758;6.096;2023-04-29T04:08:56;35.00;;;13.00;;
43042;SDS011;28667;50.758;6.096;2023-04-29T04:11:27;31.67;;;13.05;;
43042;SDS011;28667;50.758;6.096;2023-04-29T04:13:56;33.95;;;14.02;;
43042;SDS011;28667;50.758;6.096;2023-04-29T04:16:22;35.47;;;12.88;;
43042;SDS011;28667;50.758;6.096;2023-04-29T04:18:48;38.55;;;15.50;;
43042;SDS011;28667;50.758;6.096;2023-04-29T04:21:14;50.38;;;17.63;;
43042;SDS011;28667;50.758;6.096;2023-04-29T04:23:45;44.22;;;15.75;;
43042;SDS011;28667;50.758;6.096;2023-04-29T04:26:14;53.08;;;16.90;;
43042;SDS011;28667;50.758;6.096;2023-04-29T04:28:45;48.03;;;17.17;;
43042;SDS011;28667;50.758;6.096;2023-04-29T04:31:18;44.50;;;17.75;;
43042;SDS011;28667;50.758;6.096;2023-04-29T04:33:44;51.28;;;17.75;;
43042;SDS011;28667;50.758;6.096;2023-04-29T04:36:11;55.55;;;18.58;;
43042;SDS011;28667;50.758;6.096;2023-04-29T04:38:37;50.30;;;16.50;;
43042;SDS011;28667;50.758;6.096;2023-04-29T04:41:08;55.00;;;17.08;;
43042;SDS011;28667;50.758;6.096;2023-04-29T04:43:36;49.70;;;17.83;;
43042;SDS011;28667;50.758;6.096;2023-04-29T04:46:10;50.55;;;17.85;;
43042;SDS011;28667;50.758;6.096;2023-04-29T04:48:40;48.83;;;18.20;;
43042;SDS011;28667;50.758;6.096;2023-04-29T04:51:09;61.17;;;19.73;;
43042;SDS011;28667;50.758;6.096;2023-04-29T04:53:35;53.60;;;18.88;;
43042;SDS011;28667;50.758;6.096;2023-04-29T04:56:06;52.95;;;18.17;;
43042;SDS011;28667;50.758;6.096;2023-04-29T04:58:32;52.00;;;18.08;;
43042;SDS011;28667;50.758;6.096;2023-04-29T05:00:59;45.83;;;17.00;;
43042;SDS011;28667;50.758;6.096;2023-04-29T05:03:25;45.15;;;16.60;;
43042;SDS011;28667;50.758;6.096;2023-04-29T05:06:00;47.03;;;16.02;;
43042;SDS011;28667;50.758;6.096;2023-04-29T05:08:28;39.55;;;15.43;;
43042;SDS011;28667;50.758;6.096;2023-04-29T05:10:57;36.60;;;13.73;;
43042;SDS011;28667;50.758;6.096;2023-04-29T05:13:22;38.53;;;14.75;;
43042;SDS011;28667;50.758;6.096;2023-04-29T05:15:49;44.00;;;14.43;;
43042;SDS011;28667;50.758;6.096;2023-04-29T05:18:20;30.88;;;12.75;;
43042;SDS011;28667;50.758;6.096;2023-04-29T05:20:48;37.47;;;12.50;;
43042;SDS011;28667;50.758;6.096;2023-04-29T05:23:14;33.05;;;11.60;;
43042;SDS011;28667;50.758;6.096;2023-04-29T05:25:41;29.63;;;11.88;;
43042;SDS011;28667;50.758;6.096;2023-04-29T05:28:07;31.88;;;11.75;;
43042;SDS011;28667;50.758;6.096;2023-04-29T05:30:36;31.35;;;12.27;;
43042;SDS011;28667;50.758;6.096;2023-04-29T05:33:03;30.38;;;11.68;;
43042;SDS011;28667;50.758;6.096;2023-04-29T05:35:29;28.55;;;11.30;;
43042;SDS011;28667;50.758;6.096;2023-04-29T05:37:56;34.40;;;11.50;;
43042;SDS011;28667;50.758;6.096;2023-04-29T05:40:37;25.27;;;9.95;;
43042;SDS011;28667;50.758;6.096;2023-04-29T05:43:20;26.02;;;11.25;;
43042;SDS011;28667;50.758;6.096;2023-04-29T05:45:46;22.35;;;8.85;;
43042;SDS011;28667;50.758;6.096;2023-04-29T05:48:12;25.83;;;10.80;;
43042;SDS011;28667;50.758;6.096;2023-04-29T05:50:38;23.38;;;9.70;;
43042;SDS011;28667;50.758;6.096;2023-04-29T05:53:04;23.63;;;8.93;;
43042;SDS011;28667;50.758;6.096;2023-04-29T05:55:30;24.85;;;9.65;;
43042;SDS011;28667;50.758;6.096;2023-04-29T05:57:56;17.85;;;7.90;;
43042;SDS011;28667;50.758;6.096;2023-04-29T06:00:22;19.17;;;7.53;;
43042;SDS011;28667;50.758;6.096;2023-04-29T06:02:55;17.75;;;7.97;;
43042;SDS011;28667;50.758;6.096;2023-04-29T06:05:21;18.40;;;7.93;;
43042;SDS011;28667;50.758;6.096;2023-04-29T06:08:05;17.65;;;7.38;;
43042;SDS011;28667;50.758;6.096;2023-04-29T06:10:42;16.15;;;6.80;;
43042;SDS011;28667;50.758;6.096;2023-04-29T06:13:09;17.35;;;6.88;;
43042;SDS011;28667;50.758;6.096;2023-04-29T06:15:35;20.52;;;8.20;;
43042;SDS011;28667;50.758;6.096;2023-04-29T06:18:01;16.20;;;6.53;;
43042;SDS011;28667;50.758;6.096;2023-04-29T06:20:27;15.00;;;6.45;;
43042;SDS011;28667;50.758;6.096;2023-04-29T06:22:52;18.33;;;6.30;;
43042;SDS011;28667;50.758;6.096;2023-04-29T06:25:18;16.95;;;6.72;;
43042;SDS011;28667;50.758;6.096;2023-04-29T06:27:48;14.13;;;5.53;;
43042;SDS011;28667;50.758;6.096;2023-04-29T06:30:16;15.52;;;6.28;;
43042;SDS011;28667;50.758;6.096;2023-04-29T06:32:42;14.65;;;6.32;;
43042;SDS011;28667;50.758;6.096;2023-04-29T06:35:08;16.73;;;7.38;;
43042;SDS011;28667;50.758;6.096;2023-04-29T06:37:54;19.75;;;7.32;;
43042;SDS011;28667;50.758;6.096;2023-04-29T06:40:47;16.73;;;6.63;;
43042;SDS011;28667;50.758;6.096;2023-04-29T06:43:15;17.33;;;6.55;;
43042;SDS011;28667;50.758;6.096;2023-04-29T06:46:09;14.32;;;7.07;;
43042;SDS011;28667;50.758;6.096;2023-04-29T06:48:44;14.85;;;6.43;;
43042;SDS011;28667;50.758;6.096;2023-04-29T06:51:10;17.08;;;7.55;;
43042;SDS011;28667;50.758;6.096;2023-04-29T06:53:37;12.23;;;6.18;;
43042;SDS011;28667;50.758;6.096;2023-04-29T06:56:02;12.38;;;5.90;;
43042;SDS011;28667;50.758;6.096;2023-04-29T06:58:29;13.40;;;5.93;;
43042;SDS011;28667;50.758;6.096;2023-04-29T07:00:55;16.90;;;7.30;;
43042;SDS011;28667;50.758;6.096;2023-04-29T07:03:21;11.60;;;6.88;;
43042;SDS011;28667;50.758;6.096;2023-04-29T07:05:46;14.00;;;5.65;;
43042;SDS011;28667;50.758;6.096;2023-04-29T07:08:13;18.10;;;6.60;;
43042;SDS011;28667;50.758;6.096;2023-04-29T07:10:39;13.73;;;6.05;;
43042;SDS011;28667;50.758;6.096;2023-04-29T07:13:07;19.15;;;7.45;;
43042;SDS011;28667;50.758;6.096;2023-04-29T07:15:33;16.60;;;7.63;;
43042;SDS011;28667;50.758;6.096;2023-04-29T07:18:02;17.85;;;8.05;;
43042;SDS011;28667;50.758;6.096;2023-04-29T07:20:29;18.25;;;7.50;;
43042;SDS011;28667;50.758;6.096;2023-04-29T07:22:55;18.38;;;7.60;;
43042;SDS011;28667;50.758;6.096;2023-04-29T07:25:20;16.45;;;7.07;;
43042;SDS011;28667;50.758;6.096;2023-04-29T07:27:47;13.25;;;6.63;;
43042;SDS011;28667;50.758;6.096;2023-04-29T07:30:12;15.10;;;5.88;;
43042;SDS011;28667;50.758;6.096;2023-04-29T07:32:38;10.77;;;5.13;;
43042;SDS011;28667;50.758;6.096;2023-04-29T07:35:04;15.20;;;6.28;;
43042;SDS011;28667;50.758;6.096;2023-04-29T07:37:30;13.80;;;5.75;;
43042;SDS011;28667;50.758;6.096;2023-04-29T07:39:56;14.45;;;6.68;;
43042;SDS011;28667;50.758;6.096;2023-04-29T07:42:22;10.02;;;5.45;;
43042;SDS011;28667;50.758;6.096;2023-04-29T07:44:48;12.40;;;5.22;;
43042;SDS011;28667;50.758;6.096;2023-04-29T07:47:13;12.70;;;5.57;;
43042;SDS011;28667;50.758;6.096;2023-04-29T07:49:39;9.77;;;4.75;;
43042;SDS011;28667;50.758;6.096;2023-04-29T07:52:06;12.68;;;5.55;;
43042;SDS011;28667;50.758;6.096;2023-04-29T07:54:34;12.18;;;5.65;;
43042;SDS011;28667;50.758;6.096;2023-04-29T07:57:01;12.38;;;5.35;;
43042;SDS011;28667;50.758;6.096;2023-04-29T07:59:30;10.27;;;5.75;;
43042;SDS011;28667;50.758;6.096;2023-04-29T08:01:56;9.18;;;4.63;;
43042;SDS011;28667;50.758;6.096;2023-04-29T08:04:22;7.57;;;3.92;;
43042;SDS011;28667;50.758;6.096;2023-04-29T08:06:58;9.80;;;4.50;;
43042;SDS011;28667;50.758;6.096;2023-04-29T08:09:24;8.48;;;4.72;;
43042;SDS011;28667;50.758;6.096;2023-04-29T08:11:49;8.95;;;4.03;;
43042;SDS011;28667;50.758;6.096;2023-04-29T08:14:15;10.80;;;3.88;;
43042;SDS011;28667;50.758;6.096;2023-04-29T08:16:41;5.72;;;3.47;;
43042;SDS011;28667;50.758;6.096;2023-04-29T08:19:07;6.55;;;3.63;;
43042;SDS011;28667;50.758;6.096;2023-04-29T08:21:32;11.02;;;4.57;;
43042;SDS011;28667;50.758;6.096;2023-04-29T08:23:59;7.93;;;4.05;;
43042;SDS011;28667;50.758;6.096;2023-04-29T08:26:25;10.85;;;4.57;;
43042;SDS011;28667;50.758;6.096;2023-04-29T08:28:51;6.80;;;4.15;;
43042;SDS011;28667;50.758;6.096;2023-04-29T08:31:20;11.00;;;4.15;;
43042;SDS011;28667;50.758;6.096;2023-04-29T08:33:46;5.85;;;3.72;;
43042;SDS011;28667;50.758;6.096;2023-04-29T08:36:12;5.68;;;3.35;;
43042;SDS011;28667;50.758;6.096;2023-04-29T08:38:38;8.90;;;3.90;;
43042;SDS011;28667;50.758;6.096;2023-04-29T08:41:06;7.03;;;4.20;;
43042;SDS011;28667;50.758;6.096;2023-04-29T08:43:34;8.35;;;4.18;;
43042;SDS011;28667;50.758;6.096;2023-04-29T08:46:01;6.10;;;3.33;;
43042;SDS011;28667;50.758;6.096;2023-04-29T08:48:29;8.35;;;4.30;;
43042;SDS011;28667;50.758;6.096;2023-04-29T08:50:55;7.45;;;4.85;;
43042;SDS011;28667;50.758;6.096;2023-04-29T08:53:22;10.75;;;4.72;;
43042;SDS011;28667;50.758;6.096;2023-04-29T08:55:48;10.35;;;5.38;;
43042;SDS011;28667;50.758;6.096;2023-04-29T08:58:14;10.00;;;5.75;;
43042;SDS011;28667;50.758;6.096;2023-04-29T09:00:41;11.40;;;4.78;;
43042;SDS011;28667;50.758;6.096;2023-04-29T09:03:13;10.85;;;5.82;;
43042;SDS011;28667;50.758;6.096;2023-04-29T09:05:40;10.52;;;5.68;;
43042;SDS011;28667;50.758;6.096;2023-04-29T09:08:10;10.70;;;4.85;;
43042;SDS011;28667;50.758;6.096;2023-04-29T09:10:37;8.48;;;3.78;;
43042;SDS011;28667;50.758;6.096;2023-04-29T09:13:06;11.07;;;5.35;;
43042;SDS011;28667;50.758;6.096;2023-04-29T09:15:35;11.73;;;5.40;;
43042;SDS011;28667;50.758;6.096;2023-04-29T09:18:02;17.35;;;5.60;;
43042;SDS011;28667;50.758;6.096;2023-04-29T09:20:28;11.52;;;5.65;;
43042;SDS011;28667;50.758;6.096;2023-04-29T09:22:55;9.25;;;4.63;;
43042;SDS011;28667;50.758;6.096;2023-04-29T09:25:23;9.88;;;5.38;;
43042;SDS011;28667;50.758;6.096;2023-04-29T09:27:48;11.73;;;5.50;;
43042;SDS011;28667;50.758;6.096;2023-04-29T09:30:15;15.50;;;6.05;;
43042;SDS011;28667;50.758;6.096;2023-04-29T09:32:41;9.70;;;4.90;;
43042;SDS011;28667;50.758;6.096;2023-04-29T09:35:24;6.93;;;3.95;;
43042;SDS011;28667;50.758;6.096;2023-04-29T09:38:11;8.43;;;4.18;;
43042;SDS011;28667;50.758;6.096;2023-04-29T09:40:39;7.85;;;4.10;;
43042;SDS011;28667;50.758;6.096;2023-04-29T09:43:13;10.00;;;4.60;;
43042;SDS011;28667;50.758;6.096;2023-04-29T09:45:44;8.15;;;4.65;;
43042;SDS011;28667;50.758;6.096;2023-04-29T09:48:11;6.40;;;3.97;;
43042;SDS011;28667;50.758;6.096;2023-04-29T09:50:38;8.82;;;4.03;;
43042;SDS011;28667;50.758;6.096;2023-04-29T09:53:06;9.13;;;4.85;;
43042;SDS011;28667;50.758;6.096;2023-04-29T09:55:36;8.52;;;4.25;;
43042;SDS011;28667;50.758;6.096;2023-04-29T10:01:01;7.82;;;4.55;;
43042;SDS011;28667;50.758;6.096;2023-04-29T10:03:35;8.88;;;4.05;;
43042;SDS011;28667;50.758;6.096;2023-04-29T10:06:05;6.32;;;4.00;;
43042;SDS011;28667;50.758;6.096;2023-04-29T10:08:32;9.68;;;4.65;;
43042;SDS011;28667;50.758;6.096;2023-04-29T10:11:02;7.95;;;3.97;;
43042;SDS011;28667;50.758;6.096;2023-04-29T10:13:28;9.52;;;4.93;;
43042;SDS011;28667;50.758;6.096;2023-04-29T10:18:47;7.18;;;4.53;;
43042;SDS011;28667;50.758;6.096;2023-04-29T10:21:17;9.52;;;4.88;;
43042;SDS011;28667;50.758;6.096;2023-04-29T10:23:48;12.80;;;5.32;;
43042;SDS011;28667;50.758;6.096;2023-04-29T10:26:14;7.85;;;4.13;;
43042;SDS011;28667;50.758;6.096;2023-04-29T10:28:42;10.57;;;4.47;;
43042;SDS011;28667;50.758;6.096;2023-04-29T10:31:10;10.90;;;5.20;;
43042;SDS011;28667;50.758;6.096;2023-04-29T10:33:38;7.35;;;3.97;;
43042;SDS011;28667;50.758;6.096;2023-04-29T10:36:08;11.32;;;5.03;;
43042;SDS011;28667;50.758;6.096;2023-04-29T10:38:41;11.40;;;4.72;;
43042;SDS011;28667;50.758;6.096;2023-04-29T10:41:21;7.07;;;5.00;;
43042;SDS011;28667;50.758;6.096;2023-04-29T10:43:51;7.07;;;4.13;;
43042;SDS011;28667;50.758;6.096;2023-04-29T10:46:18;5.68;;;3.13;;
43042;SDS011;28667;50.758;6.096;2023-04-29T10:48:45;9.63;;;4.80;;
43042;SDS011;28667;50.758;6.096;2023-04-29T10:51:11;7.95;;;4.40;;
43042;SDS011;28667;50.758;6.096;2023-04-29T10:59:05;7.45;;;4.28;;
43042;SDS011;28667;50.758;6.096;2023-04-29T11:04:09;7.32;;;4.95;;
43042;SDS011;28667;50.758;6.096;2023-04-29T11:06:37;7.28;;;4.03;;
43042;SDS011;28667;50.758;6.096;2023-04-29T11:09:11;5.03;;;3.25;;
43042;SDS011;28667;50.758;6.096;2023-04-29T11:14:08;3.42;;;3.13;;
43042;SDS011;28667;50.758;6.096;2023-04-29T11:16:37;4.80;;;3.15;;
43042;SDS011;28667;50.758;6.096;2023-04-29T11:19:13;7.63;;;3.72;;
43042;SDS011;28667;50.758;6.096;2023-04-29T11:21:40;6.70;;;3.83;;
43042;SDS011;28667;50.758;6.096;2023-04-29T11:24:06;6.18;;;4.28;;
43042;SDS011;28667;50.758;6.096;2023-04-29T11:26:35;8.80;;;4.43;;
43042;SDS011;28667;50.758;6.096;2023-04-29T11:29:01;7.13;;;4.05;;
43042;SDS011;28667;50.758;6.096;2023-04-29T11:31:32;9.18;;;4.72;;
43042;SDS011;28667;50.758;6.096;2023-04-29T11:33:58;9.13;;;4.50;;
43042;SDS011;28667;50.758;6.096;2023-04-29T11:36:24;8.85;;;5.05;;
43042;SDS011;28667;50.758;6.096;2023-04-29T11:38:52;6.05;;;4.00;;
43042;SDS011;28667;50.758;6.096;2023-04-29T11:41:18;8.30;;;4.50;;
43042;SDS011;28667;50.758;6.096;2023-04-29T11:43:46;14.13;;;5.38;;
43042;SDS011;28667;50.758;6.096;2023-04-29T11:46:19;7.95;;;5.05;;
43042;SDS011;28667;50.758;6.096;2023-04-29T11:48:47;7.72;;;4.28;;
43042;SDS011;28667;50.758;6.096;2023-04-29T11:51:14;6.05;;;3.55;;
43042;SDS011;28667;50.758;6.096;2023-04-29T11:53:41;8.77;;;4.95;;
43042;SDS011;28667;50.758;6.096;2023-04-29T11:56:08;7.00;;;4.03;;
43042;SDS011;28667;50.758;6.096;2023-04-29T11:58:34;10.30;;;5.13;;
43042;SDS011;28667;50.758;6.096;2023-04-29T12:01:01;9.85;;;4.93;;
43042;SDS011;28667;50.758;6.096;2023-04-29T12:03:30;12.23;;;5.93;;
43042;SDS011;28667;50.758;6.096;2023-04-29T12:05:57;12.32;;;6.13;;
43042;SDS011;28667;50.758;6.096;2023-04-29T12:08:23;11.18;;;5.95;;
43042;SDS011;28667;50.758;6.096;2023-04-29T12:10:51;9.20;;;5.70;;
43042;SDS011;28667;50.758;6.096;2023-04-29T12:13:20;6.13;;;3.80;;
43042;SDS011;28667;50.758;6.096;2023-04-29T12:15:48;8.27;;;4.30;;
43042;SDS011;28667;50.758;6.096;2023-04-29T12:18:16;9.88;;;5.05;;
43042;SDS011;28667;50.758;6.096;2023-04-29T12:20:43;10.63;;;3.92;;
43042;SDS011;28667;50.758;6.096;2023-04-29T12:23:10;8.35;;;4.05;;
43042;SDS011;28667;50.758;6.096;2023-04-29T12:25:40;9.95;;;4.90;;
43042;SDS011;28667;50.758;6.096;2023-04-29T12:28:13;9.70;;;4.72;;
43042;SDS011;28667;50.758;6.096;2023-04-29T12:30:39;9.63;;;5.38;;
43042;SDS011;28667;50.758;6.096;2023-04-29T12:33:08;9.88;;;4.38;;
43042;SDS011;28667;50.758;6.096;2023-04-29T12:35:34;10.10;;;5.75;;
43042;SDS011;28667;50.758;6.096;2023-04-29T12:38:01;13.18;;;6.28;;
43042;SDS011;28667;50.758;6.096;2023-04-29T12:40:27;13.73;;;6.68;;
43042;SDS011;28667;50.758;6.096;2023-04-29T12:42:53;11.57;;;6.40;;
43042;SDS011;28667;50.758;6.096;2023-04-29T12:45:28;10.50;;;6.03;;
43042;SDS011;28667;50.758;6.096;2023-04-29T12:47:56;9.90;;;5.15;;
43042;SDS011;28667;50.758;6.096;2023-04-29T12:50:29;11.68;;;6.25;;
43042;SDS011;28667;50.758;6.096;2023-04-29T12:53:00;10.23;;;6.78;;
43042;SDS011;28667;50.758;6.096;2023-04-29T12:55:27;10.90;;;6.10;;
43042;SDS011;28667;50.758;6.096;2023-04-29T12:57:53;12.10;;;6.32;;
43042;SDS011;28667;50.758;6.096;2023-04-29T13:00:19;11.75;;;6.07;;
43042;SDS011;28667;50.758;6.096;2023-04-29T13:02:45;10.88;;;6.22;;
43042;SDS011;28667;50.758;6.096;2023-04-29T13:05:12;8.38;;;4.55;;
43042;SDS011;28667;50.758;6.096;2023-04-29T13:07:37;13.10;;;6.30;;
43042;SDS011;28667;50.758;6.096;2023-04-29T13:10:04;16.13;;;7.75;;
43042;SDS011;28667;50.758;6.096;2023-04-29T13:12:31;12.75;;;7.15;;
43042;SDS011;28667;50.758;6.096;2023-04-29T13:14:57;13.13;;;7.85;;
43042;SDS011;28667;50.758;6.096;2023-04-29T13:17:22;15.43;;;7.05;;
43042;SDS011;28667;50.758;6.096;2023-04-29T13:19:48;17.08;;;8.13;;
43042;SDS011;28667;50.758;6.096;2023-04-29T13:22:15;20.67;;;9.05;;
43042;SDS011;28667;50.758;6.096;2023-04-29T13:24:40;15.75;;;7.68;;
43042;SDS011;28667;50.758;6.096;2023-04-29T13:27:06;14.63;;;8.57;;
43042;SDS011;28667;50.758;6.096;2023-04-29T13:29:32;15.73;;;7.47;;
43042;SDS011;28667;50.758;6.096;2023-04-29T13:31:58;15.05;;;8.15;;
43042;SDS011;28667;50.758;6.096;2023-04-29T13:34:23;12.45;;;7.43;;
43042;SDS011;28667;50.758;6.096;2023-04-29T13:36:49;15.20;;;7.70;;
43042;SDS011;28667;50.758;6.096;2023-04-29T13:39:15;12.15;;;7.40;;
43042;SDS011;28667;50.758;6.096;2023-04-29T13:41:41;11.82;;;6.88;;
43042;SDS011;28667;50.758;6.096;2023-04-29T13:44:07;12.32;;;7.88;;
43042;SDS011;28667;50.758;6.096;2023-04-29T13:46:32;19.35;;;9.68;;
43042;SDS011;28667;50.758;6.096;2023-04-29T13:48:58;16.27;;;8.18;;
43042;SDS011;28667;50.758;6.096;2023-04-29T13:51:24;15.40;;;7.65;;
43042;SDS011;28667;50.758;6.096;2023-04-29T13:53:50;14.05;;;7.55;;
43042;SDS011;28667;50.758;6.096;2023-04-29T13:56:15;20.27;;;7.72;;
43042;SDS011;28667;50.758;6.096;2023-04-29T13:58:41;15.40;;;8.23;;
43042;SDS011;28667;50.758;6.096;2023-04-29T14:01:07;15.55;;;7.07;;
43042;SDS011;28667;50.758;6.096;2023-04-29T14:03:33;14.93;;;7.95;;
43042;SDS011;28667;50.758;6.096;2023-04-29T14:06:04;14.25;;;7.22;;
43042;SDS011;28667;50.758;6.096;2023-04-29T14:08:31;11.18;;;6.53;;
43042;SDS011;28667;50.758;6.096;2023-04-29T14:10:57;18.67;;;7.15;;
43042;SDS011;28667;50.758;6.096;2023-04-29T14:13:23;9.85;;;7.03;;
43042;SDS011;28667;50.758;6.096;2023-04-29T14:15:49;10.75;;;7.15;;
43042;SDS011;28667;50.758;6.096;2023-04-29T14:18:15;15.00;;;8.80;;
43042;SDS011;28667;50.758;6.096;2023-04-29T14:20:40;15.57;;;6.75;;
43042;SDS011;28667;50.758;6.096;2023-04-29T14:23:06;13.95;;;6.68;;
43042;SDS011;28667;50.758;6.096;2023-04-29T14:25:32;15.82;;;8.10;;
43042;SDS011;28667;50.758;6.096;2023-04-29T14:27:57;12.07;;;6.80;;
43042;SDS011;28667;50.758;6.096;2023-04-29T14:30:23;17.55;;;7.13;;
43042;SDS011;28667;50.758;6.096;2023-04-29T14:32:49;12.93;;;8.32;;
43042;SDS011;28667;50.758;6.096;2023-04-29T14:35:15;12.27;;;6.82;;
43042;SDS011;28667;50.758;6.096;2023-04-29T14:37:40;10.77;;;6.95;;
43042;SDS011;28667;50.758;6.096;2023-04-29T14:40:06;12.50;;;7.68;;
43042;SDS011;28667;50.758;6.096;2023-04-29T14:42:33;10.48;;;6.47;;
43042;SDS011;28667;50.758;6.096;2023-04-29T14:44:59;13.23;;;7.85;;
43042;SDS011;28667;50.758;6.096;2023-04-29T14:47:24;16.40;;;8.75;;
43042;SDS011;28667;50.758;6.096;2023-04-29T14:49:50;13.75;;;6.30;;
43042;SDS011;28667;50.758;6.096;2023-04-29T14:52:16;13.98;;;6.97;;
43042;SDS011;28667;50.758;6.096;2023-04-29T14:54:42;12.88;;;7.35;;
43042;SDS011;28667;50.758;6.096;2023-04-29T14:57:08;9.48;;;5.53;;
43042;SDS011;28667;50.758;6.096;2023-04-29T14:59:34;21.17;;;7.22;;
43042;SDS011;28667;50.758;6.096;2023-04-29T15:02:00;6.80;;;4.70;;
43042;SDS011;28667;50.758;6.096;2023-04-29T15:04:26;15.05;;;6.90;;